sensor_id;sensor_type;location;lat;lon;timestamp;pressure;altitude;pressure_sealevel;temperature;humidity
31775;BME280;66189;49.000;11.640;2023-04-29T00:01:56;95629.38;;;9.59;93.39
31775;BME280;66189;49.000;11.640;2023-04-29T00:03:58;95628.19;;;9.56;93.41
31775;BME280;66189;49.000;11.640;2023-04-29T00:05:58;95618.72;;;9.63;93.46
31775;BME280;66189;49.000;11.640;2023-04-29T00:07:59;95619.00;;;9.57;93.72
31775;BME280;66189;49.000;11.640;2023-04-29T00:09:59;95616.72;;;9.59;93.55
31775;BME280;66189;49.000;11.640;2023-04-29T00:11:59;95614.94;;;9.67;93.51
31775;BME280;66189;49.000;11.640;2023-04-29T00:14:01;95617.28;;;9.69;93.01
31775;BME280;66189;49.000;11.640;2023-04-29T00:16:01;95605.72;;;9.68;93.12
31775;BME280;66189;49.000;11.640;2023-04-29T00:18:02;95609.50;;;9.64;93.68
31775;BME280;66189;49.000;11.640;2023-04-29T00:20:03;95611.53;;;9.70;93.27
31775;BME280;66189;49.000;11.640;2023-04-29T00:22:03;95607.28;;;9.69;93.00
31775;BME280;66189;49.000;11.640;2023-04-29T00:24:04;95610.69;;;9.66;93.13
31775;BME280;66189;49.000;11.640;2023-04-29T00:26:04;95610.66;;;9.63;93.38
31775;BME280;66189;49.000;11.640;2023-04-29T00:28:04;95608.84;;;9.70;93.11
31775;BME280;66189;49.000;11.640;2023-04-29T00:30:08;95598.84;;;9.67;93.29
31775;BME280;66189;49.000;11.640;2023-04-29T00:32:08;95590.88;;;9.74;93.26
31775;BME280;66189;49.000;11.640;2023-04-29T00:34:09;95590.88;;;9.74;92.95
31775;BME280;66189;49.000;11.640;2023-04-29T00:36:09;95585.56;;;9.78;93.19
31775;BME280;66189;49.000;11.640;2023-04-29T00:38:10;95587.16;;;9.83;92.88
31775;BME280;66189;49.000;11.640;2023-04-29T00:40:10;95581.38;;;9.81;92.96
31775;BME280;66189;49.000;11.640;2023-04-29T00:42:16;95593.97;;;9.76;92.98
31775;BME280;66189;49.000;11.640;2023-04-29T00:44:16;95602.94;;;9.84;93.30
31775;BME280;66189;49.000;11.640;2023-04-29T00:46:16;95599.56;;;9.91;93.25
31775;BME280;66189;49.000;11.640;2023-04-29T00:48:17;95601.00;;;9.85;93.80
31775;BME280;66189;49.000;11.640;2023-04-29T00:50:17;95598.72;;;9.87;94.00
31775;BME280;66189;49.000;11.640;2023-04-29T00:52:18;95597.13;;;9.82;94.15
31775;BME280;66189;49.000;11.640;2023-04-29T00:54:18;95593.78;;;9.89;94.27
31775;BME280;66189;49.000;11.640;2023-04-29T00:56:19;95591.97;;;9.96;93.97
31775;BME280;66189;49.000;11.640;2023-04-29T00:58:20;95590.38;;;9.92;94.26
31775;BME280;66189;49.000;11.640;2023-04-29T01:00:21;95588.56;;;10.00;94.16
31775;BME280;66189;49.000;11.640;2023-04-29T01:02:23;95586.44;;;9.86;94.78
31775;BME280;66189;49.000;11.640;2023-04-29T01:04:25;95594.88;;;9.84;95.09
31775;BME280;66189;49.000;11.640;2023-04-29T01:06:29;95604.81;;;9.84;95.52
31775;BME280;66189;49.000;11.640;2023-04-29T01:08:36;95612.50;;;9.85;95.34
31775;BME280;66189;49.000;11.640;2023-04-29T01:12:44;95614.84;;;9.87;95.22
31775;BME280;66189;49.000;11.640;2023-04-29T01:14:47;95605.25;;;9.86;95.23
31775;BME280;66189;49.000;11.640;2023-04-29T01:16:55;95607.34;;;9.96;95.11
31775;BME280;66189;49.000;11.640;2023-04-29T01:19:00;95609.94;;;9.92;94.88
31775;BME280;66189;49.000;11.640;2023-04-29T01:21:05;95601.88;;;9.92;95.02
31775;BME280;66189;49.000;11.640;2023-04-29T01:23:05;95603.44;;;9.93;95.17
31775;BME280;66189;49.000;11.640;2023-04-29T01:25:06;95608.06;;;9.93;94.89
31775;BME280;66189;49.000;11.640;2023-04-29T01:29:39;95592.44;;;10.02;94.59
31775;BME280;66189;49.000;11.640;2023-04-29T01:31:45;95595.91;;;10.03;94.68
31775;BME280;66189;49.000;11.640;2023-04-29T01:35:57;95604.66;;;9.96;94.86
31775;BME280;66189;49.000;11.640;2023-04-29T01:38:10;95598.13;;;9.97;94.79
31775;BME280;66189;49.000;11.640;2023-04-29T01:40:15;95601.22;;;9.99;94.75
31775;BME280;66189;49.000;11.640;2023-04-29T01:42:33;95600.00;;;9.93;94.96
31775;BME280;66189;49.000;11.640;2023-04-29T01:44:40;95593.41;;;9.90;94.94
31775;BME280;66189;49.000;11.640;2023-04-29T01:46:42;95596.16;;;9.94;94.98
31775;BME280;66189;49.000;11.640;2023-04-29T01:48:43;95593.47;;;9.94;94.94
31775;BME280;66189;49.000;11.640;2023-04-29T01:50:43;95595.31;;;9.90;95.00
31775;BME280;66189;49.000;11.640;2023-04-29T01:52:48;95590.31;;;9.88;95.18
31775;BME280;66189;49.000;11.640;2023-04-29T01:54:49;95595.31;;;9.90;94.94
31775;BME280;66189;49.000;11.640;2023-04-29T01:56:49;95600.06;;;10.00;94.73
31775;BME280;66189;49.000;11.640;2023-04-29T01:59:04;95594.25;;;9.94;94.89
31775;BME280;66189;49.000;11.640;2023-04-29T02:01:11;95600.06;;;10.00;94.45
31775;BME280;66189;49.000;11.640;2023-04-29T02:03:12;95593.47;;;9.94;94.61
31775;BME280;66189;49.000;11.640;2023-04-29T02:05:15;95597.34;;;9.96;94.83
31775;BME280;66189;49.000;11.640;2023-04-29T02:07:23;95594.63;;;9.93;94.83
31775;BME280;66189;49.000;11.640;2023-04-29T02:09:23;95591.88;;;9.89;94.89
31775;BME280;66189;49.000;11.640;2023-04-29T02:11:28;95596.16;;;9.94;94.89
31775;BME280;66189;49.000;11.640;2023-04-29T02:13:31;95596.09;;;9.90;94.95
31775;BME280;66189;49.000;11.640;2023-04-29T02:15:31;95599.91;;;9.89;95.21
31775;BME280;66189;49.000;11.640;2023-04-29T02:17:32;95595.38;;;9.93;95.14
31775;BME280;66189;49.000;11.640;2023-04-29T02:19:33;95599.16;;;9.89;94.65
31775;BME280;66189;49.000;11.640;2023-04-29T02:21:33;95601.53;;;9.94;94.86
31775;BME280;66189;49.000;11.640;2023-04-29T02:23:34;95594.53;;;9.89;94.75
31775;BME280;66189;49.000;11.640;2023-04-29T02:25:35;95602.69;;;9.93;94.91
31775;BME280;66189;49.000;11.640;2023-04-29T02:27:35;95600.88;;;10.01;94.58
31775;BME280;66189;49.000;11.640;2023-04-29T02:29:35;95595.78;;;9.95;94.41
31775;BME280;66189;49.000;11.640;2023-04-29T02:31:36;95594.28;;;9.98;94.44
31775;BME280;66189;49.000;11.640;2023-04-29T02:33:37;95598.84;;;9.94;94.50
31775;BME280;66189;49.000;11.640;2023-04-29T02:35:37;95602.69;;;9.93;94.53
31775;BME280;66189;49.000;11.640;2023-04-29T02:37:38;95600.69;;;9.90;94.54
31775;BME280;66189;49.000;11.640;2023-04-29T02:39:38;95598.19;;;10.01;94.44
31775;BME280;66189;49.000;11.640;2023-04-29T02:41:38;95604.28;;;9.98;94.27
31775;BME280;66189;49.000;11.640;2023-04-29T02:43:38;95606.19;;;9.97;94.50
31775;BME280;66189;49.000;11.640;2023-04-29T02:45:39;95604.66;;;9.96;94.42
31775;BME280;66189;49.000;11.640;2023-04-29T02:47:39;95609.59;;;9.94;94.43
31775;BME280;66189;49.000;11.640;2023-04-29T02:49:40;95604.94;;;9.91;94.40
31775;BME280;66189;49.000;11.640;2023-04-29T02:51:40;95611.88;;;9.92;94.75
31775;BME280;66189;49.000;11.640;2023-04-29T02:53:41;95611.66;;;10.04;94.26
31775;BME280;66189;49.000;11.640;2023-04-29T02:55:42;95610.31;;;9.91;94.44
31775;BME280;66189;49.000;11.640;2023-04-29T02:57:43;95613.44;;;9.93;94.72
31775;BME280;66189;49.000;11.640;2023-04-29T02:59:43;95603.81;;;9.92;94.56
31775;BME280;66189;49.000;11.640;2023-04-29T03:01:44;95607.63;;;9.91;94.86
31775;BME280;66189;49.000;11.640;2023-04-29T03:03:46;95606.41;;;9.88;94.80
31775;BME280;66189;49.000;11.640;2023-04-29T03:05:46;95606.06;;;9.90;95.03
31775;BME280;66189;49.000;11.640;2023-04-29T03:07:46;95605.66;;;9.88;94.72
31775;BME280;66189;49.000;11.640;2023-04-29T03:09:47;95604.94;;;9.91;94.99
31775;BME280;66189;49.000;11.640;2023-04-29T03:11:48;95607.25;;;9.92;94.92
31775;BME280;66189;49.000;11.640;2023-04-29T03:13:49;95610.38;;;9.94;94.83
31775;BME280;66189;49.000;11.640;2023-04-29T03:15:49;95612.28;;;9.94;94.56
31775;BME280;66189;49.000;11.640;2023-04-29T03:17:50;95610.81;;;10.00;94.58
31775;BME280;66189;49.000;11.640;2023-04-29T03:19:50;95606.59;;;9.99;94.42
31775;BME280;66189;49.000;11.640;2023-04-29T03:21:52;95611.19;;;9.99;94.29
31775;BME280;66189;49.000;11.640;2023-04-29T03:23:52;95605.81;;;9.99;94.20
31775;BME280;66189;49.000;11.640;2023-04-29T03:26:01;95604.69;;;10.00;94.34
31775;BME280;66189;49.000;11.640;2023-04-29T03:28:02;95601.22;;;9.99;94.20
31775;BME280;66189;49.000;11.640;2023-04-29T03:30:05;95608.56;;;10.02;94.13
31775;BME280;66189;49.000;11.640;2023-04-29T03:32:06;95610.81;;;10.00;94.49
31775;BME280;66189;49.000;11.640;2023-04-29T03:34:07;95603.97;;;10.03;94.49
31775;BME280;66189;49.000;11.640;2023-04-29T03:36:11;95602.84;;;10.04;94.12
31775;BME280;66189;49.000;11.640;2023-04-29T03:38:24;95608.22;;;10.04;93.96
31775;BME280;66189;49.000;11.640;2023-04-29T03:40:28;95602.03;;;10.03;94.05
31775;BME280;66189;49.000;11.640;2023-04-29T03:42:29;95600.59;;;10.09;93.74
31775;BME280;66189;49.000;11.640;2023-04-29T03:44:29;95611.31;;;10.06;94.41
31775;BME280;66189;49.000;11.640;2023-04-29T03:46:29;95611.66;;;10.04;94.22
31775;BME280;66189;49.000;11.640;2023-04-29T03:48:30;95605.53;;;10.04;94.52
31775;BME280;66189;49.000;11.640;2023-04-29T03:50:30;95608.97;;;10.04;94.57
31775;BME280;66189;49.000;11.640;2023-04-29T03:52:31;95607.06;;;10.05;94.31
31775;BME280;66189;49.000;11.640;2023-04-29T03:54:36;95597.09;;;10.05;94.35
31775;BME280;66189;49.000;11.640;2023-04-29T03:56:37;95597.50;;;10.07;94.13
31775;BME280;66189;49.000;11.640;2023-04-29T03:58:37;95604.00;;;10.06;94.01
31775;BME280;66189;49.000;11.640;2023-04-29T04:00:37;95595.22;;;10.09;94.11
31775;BME280;66189;49.000;11.640;2023-04-29T04:02:43;95595.94;;;10.06;94.12
31775;BME280;66189;49.000;11.640;2023-04-29T04:04:44;95597.09;;;10.05;94.34
31775;BME280;66189;49.000;11.640;2023-04-29T04:06:45;95597.88;;;10.06;94.12
31775;BME280;66189;49.000;11.640;2023-04-29T04:08:50;95596.66;;;10.03;93.80
31775;BME280;66189;49.000;11.640;2023-04-29T04:10:55;95594.41;;;10.05;93.79
31775;BME280;66189;49.000;11.640;2023-04-29T04:13:20;95600.66;;;10.13;93.95
31775;BME280;66189;49.000;11.640;2023-04-29T04:15:21;95601.31;;;10.06;93.54
31775;BME280;66189;49.000;11.640;2023-04-29T04:17:22;95601.63;;;10.01;93.84
31775;BME280;66189;49.000;11.640;2023-04-29T04:19:22;95601.22;;;9.99;93.81
31775;BME280;66189;49.000;11.640;2023-04-29T04:21:22;95601.97;;;9.96;93.91
31775;BME280;66189;49.000;11.640;2023-04-29T04:23:33;95606.91;;;9.94;93.95
31775;BME280;66189;49.000;11.640;2023-04-29T04:25:34;95601.59;;;9.98;94.31
31775;BME280;66189;49.000;11.640;2023-04-29T04:27:55;95607.69;;;9.94;94.37
31775;BME280;66189;49.000;11.640;2023-04-29T04:30:10;95610.31;;;9.91;94.43
31775;BME280;66189;49.000;11.640;2023-04-29T04:32:10;95615.78;;;9.98;94.59
31775;BME280;66189;49.000;11.640;2023-04-29T04:34:12;95613.59;;;10.04;94.70
31775;BME280;66189;49.000;11.640;2023-04-29T04:36:12;95619.03;;;10.11;94.42
31775;BME280;66189;49.000;11.640;2023-04-29T04:38:13;95620.50;;;10.05;93.86
31775;BME280;66189;49.000;11.640;2023-04-29T04:40:14;95620.97;;;10.10;93.92
31775;BME280;66189;49.000;11.640;2023-04-29T04:42:34;95612.50;;;10.08;94.08
31775;BME280;66189;49.000;11.640;2023-04-29T04:44:37;95614.47;;;10.11;93.91
31775;BME280;66189;49.000;11.640;2023-04-29T04:46:40;95622.31;;;10.24;93.63
31775;BME280;66189;49.000;11.640;2023-04-29T04:49:00;95618.41;;;10.21;93.61
31775;BME280;66189;49.000;11.640;2023-04-29T04:51:10;95621.59;;;10.27;93.48
31775;BME280;66189;49.000;11.640;2023-04-29T04:53:11;95623.44;;;10.23;93.64
31775;BME280;66189;49.000;11.640;2023-04-29T04:55:21;95618.91;;;10.27;93.55
31775;BME280;66189;49.000;11.640;2023-04-29T04:57:24;95621.97;;;10.29;93.57
31775;BME280;66189;49.000;11.640;2023-04-29T04:59:25;95624.03;;;10.36;93.70
31775;BME280;66189;49.000;11.640;2023-04-29T05:01:25;95628.63;;;10.35;93.41
31775;BME280;66189;49.000;11.640;2023-04-29T05:03:26;95638.97;;;10.33;93.64
31775;BME280;66189;49.000;11.640;2023-04-29T05:05:27;95638.97;;;10.33;93.92
31775;BME280;66189;49.000;11.640;2023-04-29T05:07:28;95644.03;;;10.38;93.12
31775;BME280;66189;49.000;11.640;2023-04-29T05:09:38;95642.88;;;10.36;93.30
31775;BME280;66189;49.000;11.640;2023-04-29T05:11:38;95643.66;;;10.40;93.10
31775;BME280;66189;49.000;11.640;2023-04-29T05:13:45;95637.94;;;10.41;93.09
31775;BME280;66189;49.000;11.640;2023-04-29T05:15:45;95641.03;;;10.43;92.89
31775;BME280;66189;49.000;11.640;2023-04-29T05:17:48;95646.81;;;10.45;92.79
31775;BME280;66189;49.000;11.640;2023-04-29T05:19:48;95643.81;;;10.51;92.88
31775;BME280;66189;49.000;11.640;2023-04-29T05:21:49;95643.91;;;10.58;92.54
31775;BME280;66189;49.000;11.640;2023-04-29T05:23:49;95643.66;;;10.66;92.54
31775;BME280;66189;49.000;11.640;2023-04-29T05:25:50;95653.72;;;10.73;91.85
31775;BME280;66189;49.000;11.640;2023-04-29T05:27:51;95657.59;;;10.76;92.00
31775;BME280;66189;49.000;11.640;2023-04-29T05:29:53;95656.91;;;10.82;91.79
31775;BME280;66189;49.000;11.640;2023-04-29T05:31:54;95658.50;;;10.87;91.91
31775;BME280;66189;49.000;11.640;2023-04-29T05:33:55;95648.50;;;10.88;92.25
31775;BME280;66189;49.000;11.640;2023-04-29T05:35:55;95656.22;;;10.89;92.23
31775;BME280;66189;49.000;11.640;2023-04-29T05:37:56;95665.06;;;10.90;91.80
31775;BME280;66189;49.000;11.640;2023-04-29T05:40:06;95661.34;;;10.98;91.54
31775;BME280;66189;49.000;11.640;2023-04-29T05:42:07;95658.63;;;10.98;91.42
31775;BME280;66189;49.000;11.640;2023-04-29T05:44:16;95665.78;;;10.87;91.10
31775;BME280;66189;49.000;11.640;2023-04-29T05:46:16;95668.22;;;10.95;91.62
31775;BME280;66189;49.000;11.640;2023-04-29T05:48:16;95673.63;;;10.99;91.98
31775;BME280;66189;49.000;11.640;2023-04-29T05:50:17;95671.84;;;11.10;91.63
31775;BME280;66189;49.000;11.640;2023-04-29T05:52:18;95666.59;;;11.21;91.20
31775;BME280;66189;49.000;11.640;2023-04-29T05:54:21;95674.31;;;11.26;90.90
31775;BME280;66189;49.000;11.640;2023-04-29T05:56:22;95675.13;;;11.27;91.39
31775;BME280;66189;49.000;11.640;2023-04-29T05:58:22;95674.91;;;11.46;90.40
31775;BME280;66189;49.000;11.640;2023-04-29T06:00:23;95677.78;;;11.64;88.43
31775;BME280;66189;49.000;11.640;2023-04-29T06:02:30;95679.06;;;11.78;88.37
31775;BME280;66189;49.000;11.640;2023-04-29T06:04:30;95682.94;;;11.80;88.05
31775;BME280;66189;49.000;11.640;2023-04-29T06:06:46;95682.13;;;11.76;88.04
31775;BME280;66189;49.000;11.640;2023-04-29T06:09:07;95682.56;;;11.78;88.38
31775;BME280;66189;49.000;11.640;2023-04-29T06:11:08;95684.91;;;11.87;87.96
31775;BME280;66189;49.000;11.640;2023-04-29T06:13:08;95692.69;;;11.92;87.57
31775;BME280;66189;49.000;11.640;2023-04-29T06:15:08;95690.09;;;12.03;86.87
31775;BME280;66189;49.000;11.640;2023-04-29T06:17:09;95701.28;;;12.05;86.84
31775;BME280;66189;49.000;11.640;2023-04-29T06:19:10;95706.66;;;12.05;87.43
31775;BME280;66189;49.000;11.640;2023-04-29T06:21:10;95695.88;;;12.05;87.39
31775;BME280;66189;49.000;11.640;2023-04-29T06:23:10;95699.72;;;12.04;87.74
31775;BME280;66189;49.000;11.640;2023-04-29T06:25:12;95707.16;;;12.18;86.94
31775;BME280;66189;49.000;11.640;2023-04-29T06:27:20;95707.88;;;12.11;87.51
31775;BME280;66189;49.000;11.640;2023-04-29T06:29:20;95713.56;;;12.02;87.54
31775;BME280;66189;49.000;11.640;2023-04-29T06:31:20;95715.63;;;12.16;87.43
31775;BME280;66189;49.000;11.640;2023-04-29T06:33:21;95715.34;;;12.29;86.46
31775;BME280;66189;49.000;11.640;2023-04-29T06:35:23;95720.00;;;12.35;85.37
31775;BME280;66189;49.000;11.640;2023-04-29T06:37:43;95710.03;;;12.43;84.05
31775;BME280;66189;49.000;11.640;2023-04-29T06:40:01;95709.19;;;12.32;80.65
31775;BME280;66189;49.000;11.640;2023-04-29T06:42:16;95715.44;;;12.43;81.27
31775;BME280;66189;49.000;11.640;2023-04-29T06:44:54;95716.59;;;12.42;80.55
31775;BME280;66189;49.000;11.640;2023-04-29T06:47:10;95717.81;;;12.55;81.62
31775;BME280;66189;49.000;11.640;2023-04-29T06:49:21;95723.66;;;12.61;81.02
31775;BME280;66189;49.000;11.640;2023-04-29T06:51:22;95730.59;;;12.62;80.51
31775;BME280;66189;49.000;11.640;2023-04-29T06:53:24;95727.13;;;12.61;79.14
31775;BME280;66189;49.000;11.640;2023-04-29T06:55:24;95730.22;;;12.64;78.74
31775;BME280;66189;49.000;11.640;2023-04-29T06:57:25;95724.13;;;12.74;78.45
31775;BME280;66189;49.000;11.640;2023-04-29T06:59:26;95720.69;;;12.77;79.63
31775;BME280;66189;49.000;11.640;2023-04-29T07:01:26;95724.56;;;12.87;79.72
31775;BME280;66189;49.000;11.640;2023-04-29T07:03:26;95718.78;;;12.88;78.40
31775;BME280;66189;49.000;11.640;2023-04-29T07:05:27;95729.66;;;12.99;78.54
31775;BME280;66189;49.000;11.640;2023-04-29T07:07:27;95727.75;;;13.07;76.99
31775;BME280;66189;49.000;11.640;2023-04-29T07:09:27;95717.03;;;13.28;77.46
31775;BME280;66189;49.000;11.640;2023-04-29T07:11:28;95730.22;;;13.33;77.93
31775;BME280;66189;49.000;11.640;2023-04-29T07:13:28;95730.50;;;13.18;79.12
31775;BME280;66189;49.000;11.640;2023-04-29T07:15:38;95726.22;;;13.06;77.10
31775;BME280;66189;49.000;11.640;2023-04-29T07:17:38;95724.28;;;13.10;77.85
31775;BME280;66189;49.000;11.640;2023-04-29T07:19:38;95731.28;;;13.22;77.90
31775;BME280;66189;49.000;11.640;2023-04-29T07:21:39;95729.44;;;13.33;79.71
31775;BME280;66189;49.000;11.640;2023-04-29T07:23:39;95733.69;;;13.34;79.34
31775;BME280;66189;49.000;11.640;2023-04-29T07:25:39;95735.94;;;13.25;80.50
31775;BME280;66189;49.000;11.640;2023-04-29T07:27:40;95732.44;;;13.21;80.46
31775;BME280;66189;49.000;11.640;2023-04-29T07:29:41;95733.97;;;13.11;79.43
31775;BME280;66189;49.000;11.640;2023-04-29T07:31:41;95740.81;;;12.97;79.24
31775;BME280;66189;49.000;11.640;2023-04-29T07:33:42;95739.59;;;12.80;79.46
31775;BME280;66189;49.000;11.640;2023-04-29T07:35:43;95743.25;;;13.17;80.05
31775;BME280;66189;49.000;11.640;2023-04-29T07:37:44;95743.34;;;13.35;79.04
31775;BME280;66189;49.000;11.640;2023-04-29T07:39:45;95752.63;;;13.41;79.25
31775;BME280;66189;49.000;11.640;2023-04-29T07:41:46;95744.16;;;13.43;77.35
31775;BME280;66189;49.000;11.640;2023-04-29T07:43:46;95750.78;;;13.71;77.71
31775;BME280;66189;49.000;11.640;2023-04-29T07:45:47;95747.00;;;14.00;77.21
31775;BME280;66189;49.000;11.640;2023-04-29T07:47:47;95745.06;;;14.01;77.35
31775;BME280;66189;49.000;11.640;2023-04-29T07:49:47;95743.91;;;14.02;74.35
31775;BME280;66189;49.000;11.640;2023-04-29T07:51:48;95753.91;;;13.80;73.90
31775;BME280;66189;49.000;11.640;2023-04-29T07:53:48;95754.66;;;13.77;72.36
31775;BME280;66189;49.000;11.640;2023-04-29T07:55:48;95747.75;;;13.90;72.40
31775;BME280;66189;49.000;11.640;2023-04-29T07:57:49;95753.13;;;13.83;72.43
31775;BME280;66189;49.000;11.640;2023-04-29T07:59:52;95756.22;;;13.92;71.90
31775;BME280;66189;49.000;11.640;2023-04-29T08:01:53;95755.50;;;14.24;74.54
31775;BME280;66189;49.000;11.640;2023-04-29T08:03:54;95762.09;;;14.45;72.16
31775;BME280;66189;49.000;11.640;2023-04-29T08:06:03;95764.78;;;14.27;70.53
31775;BME280;66189;49.000;11.640;2023-04-29T08:08:03;95767.88;;;14.36;71.37
31775;BME280;66189;49.000;11.640;2023-04-29T08:10:04;95763.63;;;14.28;71.36
31775;BME280;66189;49.000;11.640;2023-04-29T08:12:05;95763.25;;;14.36;71.98
31775;BME280;66189;49.000;11.640;2023-04-29T08:14:05;95773.28;;;14.47;71.08
31775;BME280;66189;49.000;11.640;2023-04-29T08:16:06;95771.00;;;14.81;70.42
31775;BME280;66189;49.000;11.640;2023-04-29T08:18:08;95763.66;;;14.35;70.22
31775;BME280;66189;49.000;11.640;2023-04-29T08:20:08;95766.34;;;14.35;69.27
31775;BME280;66189;49.000;11.640;2023-04-29T08:22:09;95759.78;;;14.43;71.68
31775;BME280;66189;49.000;11.640;2023-04-29T08:24:11;95764.00;;;14.40;71.52
31775;BME280;66189;49.000;11.640;2023-04-29T08:26:11;95770.59;;;14.43;73.09
31775;BME280;66189;49.000;11.640;2023-04-29T08:28:12;95767.13;;;14.32;70.97
31775;BME280;66189;49.000;11.640;2023-04-29T08:30:12;95767.50;;;14.30;71.78
31775;BME280;66189;49.000;11.640;2023-04-29T08:32:12;95768.28;;;14.27;72.51
31775;BME280;66189;49.000;11.640;2023-04-29T08:34:15;95769.03;;;14.10;71.85
31775;BME280;66189;49.000;11.640;2023-04-29T08:36:15;95768.66;;;14.29;71.86
31775;BME280;66189;49.000;11.640;2023-04-29T08:38:16;95770.22;;;14.81;69.37
31775;BME280;66189;49.000;11.640;2023-04-29T08:40:16;95775.22;;;14.97;68.22
31775;BME280;66189;49.000;11.640;2023-04-29T08:42:17;95777.16;;;15.03;66.15
31775;BME280;66189;49.000;11.640;2023-04-29T08:44:20;95772.44;;;15.22;68.27
31775;BME280;66189;49.000;11.640;2023-04-29T08:46:21;95777.84;;;15.33;69.97
31775;BME280;66189;49.000;11.640;2023-04-29T08:48:23;95777.91;;;15.07;65.98
31775;BME280;66189;49.000;11.640;2023-04-29T08:50:25;95776.63;;;15.48;67.22
31775;BME280;66189;49.000;11.640;2023-04-29T08:52:27;95777.69;;;15.65;68.12
31775;BME280;66189;49.000;11.640;2023-04-29T08:54:27;95775.44;;;15.45;66.22
31775;BME280;66189;49.000;11.640;2023-04-29T08:56:27;95779.78;;;15.32;67.88
31775;BME280;66189;49.000;11.640;2023-04-29T08:58:30;95779.88;;;14.96;66.75
31775;BME280;66189;49.000;11.640;2023-04-29T09:00:33;95772.09;;;15.13;68.03
31775;BME280;66189;49.000;11.640;2023-04-29T09:02:34;95776.41;;;14.81;67.66
31775;BME280;66189;49.000;11.640;2023-04-29T09:06:38;95782.09;;;15.34;67.22
31775;BME280;66189;49.000;11.640;2023-04-29T09:08:38;95778.28;;;15.09;65.79
31775;BME280;66189;49.000;11.640;2023-04-29T09:10:40;95780.94;;;15.31;65.27
31775;BME280;66189;49.000;11.640;2023-04-29T09:12:41;95787.84;;;15.54;66.14
31775;BME280;66189;49.000;11.640;2023-04-29T09:14:41;95780.16;;;15.27;63.44
31775;BME280;66189;49.000;11.640;2023-04-29T09:16:45;95779.38;;;15.37;65.95
31775;BME280;66189;49.000;11.640;2023-04-29T09:18:46;95779.31;;;15.55;66.34
31775;BME280;66189;49.000;11.640;2023-04-29T09:20:47;95779.44;;;16.11;64.88
31775;BME280;66189;49.000;11.640;2023-04-29T09:22:47;95781.75;;;16.09;64.61
31775;BME280;66189;49.000;11.640;2023-04-29T09:24:48;95779.09;;;16.02;64.36
31775;BME280;66189;49.000;11.640;2023-04-29T09:26:48;95778.88;;;15.64;64.71
31775;BME280;66189;49.000;11.640;2023-04-29T09:29:05;95784.09;;;15.08;64.54
31775;BME280;66189;49.000;11.640;2023-04-29T09:31:06;95791.06;;;15.13;65.21
31775;BME280;66189;49.000;11.640;2023-04-29T09:33:08;95788.38;;;14.80;66.87
31775;BME280;66189;49.000;11.640;2023-04-29T09:35:26;95790.72;;;14.85;67.26
31775;BME280;66189;49.000;11.640;2023-04-29T09:37:27;95796.50;;;15.05;66.30
31775;BME280;66189;49.000;11.640;2023-04-29T09:39:38;95796.88;;;15.11;66.93
31775;BME280;66189;49.000;11.640;2023-04-29T09:41:39;95792.94;;;15.30;67.04
31775;BME280;66189;49.000;11.640;2023-04-29T09:43:40;95800.56;;;15.60;67.02
31775;BME280;66189;49.000;11.640;2023-04-29T09:45:42;95800.56;;;15.60;67.94
31775;BME280;66189;49.000;11.640;2023-04-29T09:47:42;95795.28;;;16.16;67.23
31775;BME280;66189;49.000;11.640;2023-04-29T09:49:43;95803.91;;;15.97;65.41
31775;BME280;66189;49.000;11.640;2023-04-29T09:51:54;95802.84;;;15.76;66.33
31775;BME280;66189;49.000;11.640;2023-04-29T09:53:55;95801.97;;;16.01;66.26
31775;BME280;66189;49.000;11.640;2023-04-29T09:56:00;95808.00;;;16.27;65.77
31775;BME280;66189;49.000;11.640;2023-04-29T09:58:00;95808.69;;;16.38;65.88
31775;BME280;66189;49.000;11.640;2023-04-29T10:00:00;95813.59;;;15.98;65.01
31775;BME280;66189;49.000;11.640;2023-04-29T10:02:01;95814.03;;;15.89;64.90
31775;BME280;66189;49.000;11.640;2023-04-29T10:04:07;95817.28;;;15.48;65.12
31775;BME280;66189;49.000;11.640;2023-04-29T10:06:09;95817.66;;;15.46;65.72
31775;BME280;66189;49.000;11.640;2023-04-29T10:08:10;95822.44;;;14.99;66.87
31775;BME280;66189;49.000;11.640;2023-04-29T10:10:10;95816.66;;;14.68;68.88
31775;BME280;66189;49.000;11.640;2023-04-29T10:12:17;95818.19;;;14.77;68.55
31775;BME280;66189;49.000;11.640;2023-04-29T10:14:21;95832.09;;;14.86;69.28
31775;BME280;66189;49.000;11.640;2023-04-29T10:18:25;95824.78;;;14.61;68.94
31775;BME280;66189;49.000;11.640;2023-04-29T10:20:28;95818.13;;;15.16;68.07
31775;BME280;66189;49.000;11.640;2023-04-29T10:22:32;95820.44;;;15.28;68.39
31775;BME280;66189;49.000;11.640;2023-04-29T10:24:37;95814.31;;;14.88;67.47
31775;BME280;66189;49.000;11.640;2023-04-29T10:26:38;95822.81;;;14.80;67.55
31775;BME280;66189;49.000;11.640;2023-04-29T10:28:38;95826.28;;;14.98;67.22
31775;BME280;66189;49.000;11.640;2023-04-29T10:30:40;95831.34;;;14.74;66.58
31775;BME280;66189;49.000;11.640;2023-04-29T10:32:43;95825.91;;;14.82;67.26
31775;BME280;66189;49.000;11.640;2023-04-29T10:34:43;95824.34;;;14.95;67.88
31775;BME280;66189;49.000;11.640;2023-04-29T10:36:44;95824.38;;;14.63;67.09
31775;BME280;66189;49.000;11.640;2023-04-29T10:38:46;95825.88;;;14.60;66.46
31775;BME280;66189;49.000;11.640;2023-04-29T10:40:49;95821.66;;;14.84;66.96
31775;BME280;66189;49.000;11.640;2023-04-29T10:42:51;95828.22;;;14.83;66.79
31775;BME280;66189;49.000;11.640;2023-04-29T10:47:17;95815.84;;;14.97;66.58
31775;BME280;66189;49.000;11.640;2023-04-29T10:49:18;95811.22;;;14.97;66.32
31775;BME280;66189;49.000;11.640;2023-04-29T10:53:31;95820.47;;;15.21;64.43
31775;BME280;66189;49.000;11.640;2023-04-29T10:55:34;95815.63;;;15.87;65.90
31775;BME280;66189;49.000;11.640;2023-04-29T10:57:35;95819.34;;;16.14;65.69
31775;BME280;66189;49.000;11.640;2023-04-29T11:01:51;95826.50;;;15.65;61.60